Overview Statistics Trail Chart Weather Telemetry Raw packets
 

This is the latest recevied weather packets stored in our database for station/object HA5KDQ-10. If no packets are shown the sender has not sent any weather packets the latest 10 day(s).

<< 1 2 3 4 5 6 >>
Time Temp. Humidity Pressure Rain* Wind** Luminosity Snow
1788379046 24.44° C 29% 964.6 hPa - - - -
1788375445 24.44° C 29% 964.4 hPa - - - -
1788371845 25° C 29% 964.3 hPa - - - -
1788368244 26.67° C 26% 964 hPa - - - -
1788364653 28.89° C 24% 964.3 hPa - - - -
1788361042 29.44° C 23% 964.7 hPa - - - -
1788357441 33.89° C 18% 964.9 hPa - - - -
1788353840 34.44° C 18% 965.3 hPa - - - -
1788350239 36.11° C 16% 965.9 hPa - - - -
1788346638 35.56° C 18% 966.5 hPa - - - -
1788343065 33.89° C 20% 966.9 hPa - - - -
1788339457 33.33° C 22% 967.1 hPa - - - -
1788335856 27.78° C 26% 966.7 hPa - - - -
1788332255 27.22° C 26% 966.4 hPa - - - -
1788328654 25° C 29% 966.2 hPa - - - -
1788325053 22.78° C 32% 965.9 hPa - - - -
1788321451 21.11° C 33% 965.8 hPa - - - -
1788317850 21.67° C 33% 965.7 hPa - - - -
1788314250 21.67° C 33% 965.8 hPa - - - -
1788310649 21.67° C 33% 965.9 hPa - - - -
1788307048 21.67° C 32% 965.9 hPa - - - -
1788303447 22.22° C 32% 965.9 hPa - - - -
1788299846 22.22° C 33% 965.6 hPa - - - -
1788296245 22.22° C 32% 965.4 hPa - - - -
1788292644 22.78° C 32% 965 hPa - - - -

* Rain since midnight (hover to see other rain measurements)
** Current wind speed in m/s (hover to see current wind gust speed)